sensor_id;sensor_type;location;lat;lon;timestamp;temperature;humidity
75899;DHT22;64576;50.460;4.866;2022-11-20T00:02:21;3.32;99.99
75899;DHT22;64576;50.460;4.866;2022-11-20T00:04:47;3.35;99.99
75899;DHT22;64576;50.460;4.866;2022-11-20T00:07:12;3.35;99.99
75899;DHT22;64576;50.460;4.866;2022-11-20T00:09:37;3.34;99.99
75899;DHT22;64576;50.460;4.866;2022-11-20T00:12:03;3.36;99.99
75899;DHT22;64576;50.460;4.866;2022-11-20T00:14:28;3.32;99.99
75899;DHT22;64576;50.460;4.866;2022-11-20T00:16:54;3.39;99.99
75899;DHT22;64576;50.460;4.866;2022-11-20T00:19:19;3.34;99.99
75899;DHT22;64576;50.460;4.866;2022-11-20T00:21:44;3.30;99.99
75899;DHT22;64576;50.460;4.866;2022-11-20T00:24:10;3.22;99.99
75899;DHT22;64576;50.460;4.866;2022-11-20T00:26:36;3.30;99.99
75899;DHT22;64576;50.460;4.866;2022-11-20T00:29:02;3.39;99.99
75899;DHT22;64576;50.460;4.866;2022-11-20T00:31:28;3.38;99.99
75899;DHT22;64576;50.460;4.866;2022-11-20T00:33:53;3.35;99.99
75899;DHT22;64576;50.460;4.866;2022-11-20T00:36:21;3.35;99.99
75899;DHT22;64576;50.460;4.866;2022-11-20T00:38:51;3.31;99.99
75899;DHT22;64576;50.460;4.866;2022-11-20T00:41:17;3.31;99.99
75899;DHT22;64576;50.460;4.866;2022-11-20T00:43:42;3.27;99.99
75899;DHT22;64576;50.460;4.866;2022-11-20T00:46:10;3.28;99.99
75899;DHT22;64576;50.460;4.866;2022-11-20T00:48:37;3.35;99.99
75899;DHT22;64576;50.460;4.866;2022-11-20T00:51:02;3.35;99.99
75899;DHT22;64576;50.460;4.866;2022-11-20T00:53:28;3.34;99.99
75899;DHT22;64576;50.460;4.866;2022-11-20T00:56:01;3.30;99.99
75899;DHT22;64576;50.460;4.866;2022-11-20T00:58:31;3.30;99.99
75899;DHT22;64576;50.460;4.866;2022-11-20T01:01:06;3.34;99.99
75899;DHT22;64576;50.460;4.866;2022-11-20T01:03:32;3.32;99.99
75899;DHT22;64576;50.460;4.866;2022-11-20T01:06:03;3.24;99.99
75899;DHT22;64576;50.460;4.866;2022-11-20T01:08:34;3.15;99.99
75899;DHT22;64576;50.460;4.866;2022-11-20T01:11:01;3.20;99.99
75899;DHT22;64576;50.460;4.866;2022-11-20T01:13:27;3.20;99.99
75899;DHT22;64576;50.460;4.866;2022-11-20T01:18:30;3.28;99.99
75899;DHT22;64576;50.460;4.866;2022-11-20T01:20:55;3.27;99.99
75899;DHT22;64576;50.460;4.866;2022-11-20T01:23:20;3.24;99.99
75899;DHT22;64576;50.460;4.866;2022-11-20T01:25:45;3.25;99.99
75899;DHT22;64576;50.460;4.866;2022-11-20T01:28:11;3.24;99.99
75899;DHT22;64576;50.460;4.866;2022-11-20T01:30:36;3.28;99.99
75899;DHT22;64576;50.460;4.866;2022-11-20T01:33:01;3.22;99.99
75899;DHT22;64576;50.460;4.866;2022-11-20T01:35:27;3.27;99.99
75899;DHT22;64576;50.460;4.866;2022-11-20T01:37:52;3.30;99.99
75899;DHT22;64576;50.460;4.866;2022-11-20T01:40:17;3.30;99.99
75899;DHT22;64576;50.460;4.866;2022-11-20T01:42:59;3.28;99.99
75899;DHT22;64576;50.460;4.866;2022-11-20T01:48:30;3.27;99.99
75899;DHT22;64576;50.460;4.866;2022-11-20T01:50:57;3.24;99.99
75899;DHT22;64576;50.460;4.866;2022-11-20T01:53:29;3.27;99.99
75899;DHT22;64576;50.460;4.866;2022-11-20T01:55:57;3.21;99.99
75899;DHT22;64576;50.460;4.866;2022-11-20T01:58:28;3.22;99.99
75899;DHT22;64576;50.460;4.866;2022-11-20T02:00:55;3.27;99.99
75899;DHT22;64576;50.460;4.866;2022-11-20T02:03:20;3.27;99.99
75899;DHT22;64576;50.460;4.866;2022-11-20T02:06:00;3.24;99.99
75899;DHT22;64576;50.460;4.866;2022-11-20T02:08:27;3.28;99.99
75899;DHT22;64576;50.460;4.866;2022-11-20T02:10:53;3.32;99.99
75899;DHT22;64576;50.460;4.866;2022-11-20T02:13:18;3.20;99.99
75899;DHT22;64576;50.460;4.866;2022-11-20T02:16:03;3.25;99.99
75899;DHT22;64576;50.460;4.866;2022-11-20T02:18:29;3.18;99.99
75899;DHT22;64576;50.460;4.866;2022-11-20T02:21:04;3.17;99.99
75899;DHT22;64576;50.460;4.866;2022-11-20T02:23:38;3.10;99.99
75899;DHT22;64576;50.460;4.866;2022-11-20T02:26:08;3.07;99.99
75899;DHT22;64576;50.460;4.866;2022-11-20T02:28:35;3.01;99.99
75899;DHT22;64576;50.460;4.866;2022-11-20T02:31:01;2.99;99.99
75899;DHT22;64576;50.460;4.866;2022-11-20T02:33:26;2.90;99.99
75899;DHT22;64576;50.460;4.866;2022-11-20T02:35:51;2.90;99.99
75899;DHT22;64576;50.460;4.866;2022-11-20T02:38:17;2.87;99.99
75899;DHT22;64576;50.460;4.866;2022-11-20T02:40:43;2.89;99.99
75899;DHT22;64576;50.460;4.866;2022-11-20T02:43:09;2.90;99.99
75899;DHT22;64576;50.460;4.866;2022-11-20T02:45:34;2.86;99.99
75899;DHT22;64576;50.460;4.866;2022-11-20T02:48:00;2.92;99.99
75899;DHT22;64576;50.460;4.866;2022-11-20T02:50:25;2.92;99.99
75899;DHT22;64576;50.460;4.866;2022-11-20T02:52:50;2.93;99.99
75899;DHT22;64576;50.460;4.866;2022-11-20T02:55:16;2.96;99.99
75899;DHT22;64576;50.460;4.866;2022-11-20T02:57:41;2.92;99.99
75899;DHT22;64576;50.460;4.866;2022-11-20T03:00:07;2.96;99.99
75899;DHT22;64576;50.460;4.866;2022-11-20T03:02:33;3.01;99.99
75899;DHT22;64576;50.460;4.866;2022-11-20T03:04:58;3.01;99.99
75899;DHT22;64576;50.460;4.866;2022-11-20T03:07:24;2.97;99.99
75899;DHT22;64576;50.460;4.866;2022-11-20T03:09:49;2.99;99.99
75899;DHT22;64576;50.460;4.866;2022-11-20T03:12:14;3.01;99.99
75899;DHT22;64576;50.460;4.866;2022-11-20T03:14:40;3.03;99.99
75899;DHT22;64576;50.460;4.866;2022-11-20T03:17:05;3.00;99.99
75899;DHT22;64576;50.460;4.866;2022-11-20T03:19:31;3.03;99.99
75899;DHT22;64576;50.460;4.866;2022-11-20T03:21:56;3.03;99.99
75899;DHT22;64576;50.460;4.866;2022-11-20T03:24:22;3.04;99.99
75899;DHT22;64576;50.460;4.866;2022-11-20T03:26:47;3.05;99.99
75899;DHT22;64576;50.460;4.866;2022-11-20T03:29:12;3.04;99.99
75899;DHT22;64576;50.460;4.866;2022-11-20T03:31:39;3.08;99.99
75899;DHT22;64576;50.460;4.866;2022-11-20T03:34:10;3.03;99.99
75899;DHT22;64576;50.460;4.866;2022-11-20T03:36:40;3.03;99.99
75899;DHT22;64576;50.460;4.866;2022-11-20T03:39:06;3.08;99.99
75899;DHT22;64576;50.460;4.866;2022-11-20T03:41:36;3.01;99.99
75899;DHT22;64576;50.460;4.866;2022-11-20T03:44:04;3.07;99.99
75899;DHT22;64576;50.460;4.866;2022-11-20T03:46:30;3.04;99.99
75899;DHT22;64576;50.460;4.866;2022-11-20T03:48:56;3.07;99.99
75899;DHT22;64576;50.460;4.866;2022-11-20T03:51:25;3.05;99.99
75899;DHT22;64576;50.460;4.866;2022-11-20T03:53:53;3.08;99.99
75899;DHT22;64576;50.460;4.866;2022-11-20T03:56:21;3.10;99.99
75899;DHT22;64576;50.460;4.866;2022-11-20T03:58:47;3.07;99.99
75899;DHT22;64576;50.460;4.866;2022-11-20T04:01:16;3.07;99.99
75899;DHT22;64576;50.460;4.866;2022-11-20T04:03:42;3.08;99.99
75899;DHT22;64576;50.460;4.866;2022-11-20T04:06:10;3.07;99.99
75899;DHT22;64576;50.460;4.866;2022-11-20T04:08:36;3.11;99.99
75899;DHT22;64576;50.460;4.866;2022-11-20T04:11:22;3.11;99.99
75899;DHT22;64576;50.460;4.866;2022-11-20T04:13:53;3.15;99.99
75899;DHT22;64576;50.460;4.866;2022-11-20T04:16:19;3.17;99.99
75899;DHT22;64576;50.460;4.866;2022-11-20T04:18:45;3.15;99.99
75899;DHT22;64576;50.460;4.866;2022-11-20T04:21:10;3.12;99.99
75899;DHT22;64576;50.460;4.866;2022-11-20T04:23:36;3.10;99.99
75899;DHT22;64576;50.460;4.866;2022-11-20T04:26:10;3.14;99.99
75899;DHT22;64576;50.460;4.866;2022-11-20T04:28:36;3.14;99.99
75899;DHT22;64576;50.460;4.866;2022-11-20T04:31:10;3.11;99.99
75899;DHT22;64576;50.460;4.866;2022-11-20T04:33:36;3.11;99.99
75899;DHT22;64576;50.460;4.866;2022-11-20T04:36:07;3.07;99.99
75899;DHT22;64576;50.460;4.866;2022-11-20T04:38:33;3.05;99.99
75899;DHT22;64576;50.460;4.866;2022-11-20T04:40:59;3.15;99.99
75899;DHT22;64576;50.460;4.866;2022-11-20T04:43:25;3.05;99.99
75899;DHT22;64576;50.460;4.866;2022-11-20T04:45:52;3.08;99.99
75899;DHT22;64576;50.460;4.866;2022-11-20T04:48:17;3.07;99.99
75899;DHT22;64576;50.460;4.866;2022-11-20T04:50:42;3.11;99.99
75899;DHT22;64576;50.460;4.866;2022-11-20T04:53:08;3.14;99.99
75899;DHT22;64576;50.460;4.866;2022-11-20T04:55:33;3.10;99.99
75899;DHT22;64576;50.460;4.866;2022-11-20T04:57:58;3.10;99.99
75899;DHT22;64576;50.460;4.866;2022-11-20T05:00:24;3.12;99.99
75899;DHT22;64576;50.460;4.866;2022-11-20T05:02:49;3.11;99.99
75899;DHT22;64576;50.460;4.866;2022-11-20T05:05:14;3.11;99.99
75899;DHT22;64576;50.460;4.866;2022-11-20T05:07:40;3.15;99.99
75899;DHT22;64576;50.460;4.866;2022-11-20T05:10:06;3.12;99.99
75899;DHT22;64576;50.460;4.866;2022-11-20T05:12:31;3.10;99.99
75899;DHT22;64576;50.460;4.866;2022-11-20T05:14:56;3.10;99.99
75899;DHT22;64576;50.460;4.866;2022-11-20T05:17:22;3.11;99.99
75899;DHT22;64576;50.460;4.866;2022-11-20T05:19:47;3.14;99.99
75899;DHT22;64576;50.460;4.866;2022-11-20T05:22:12;3.18;99.99
75899;DHT22;64576;50.460;4.866;2022-11-20T05:24:38;3.21;99.99
75899;DHT22;64576;50.460;4.866;2022-11-20T05:27:03;3.27;99.99
75899;DHT22;64576;50.460;4.866;2022-11-20T05:29:28;3.25;99.99
75899;DHT22;64576;50.460;4.866;2022-11-20T05:31:53;3.28;99.99
75899;DHT22;64576;50.460;4.866;2022-11-20T05:34:19;3.27;99.99
75899;DHT22;64576;50.460;4.866;2022-11-20T05:36:44;3.28;99.99
75899;DHT22;64576;50.460;4.866;2022-11-20T05:39:09;3.34;99.99
75899;DHT22;64576;50.460;4.866;2022-11-20T05:41:35;3.34;99.99
75899;DHT22;64576;50.460;4.866;2022-11-20T05:44:00;3.34;99.99
75899;DHT22;64576;50.460;4.866;2022-11-20T05:46:26;3.34;99.99
75899;DHT22;64576;50.460;4.866;2022-11-20T05:48:51;3.32;99.99
75899;DHT22;64576;50.460;4.866;2022-11-20T05:51:17;3.38;99.99
75899;DHT22;64576;50.460;4.866;2022-11-20T05:53:44;3.45;99.99
75899;DHT22;64576;50.460;4.866;2022-11-20T05:56:12;3.45;99.99
75899;DHT22;64576;50.460;4.866;2022-11-20T05:58:38;3.43;99.99
75899;DHT22;64576;50.460;4.866;2022-11-20T06:01:08;3.45;99.99
75899;DHT22;64576;50.460;4.866;2022-11-20T06:03:34;3.48;99.99
75899;DHT22;64576;50.460;4.866;2022-11-20T06:06:00;3.46;99.99
75899;DHT22;64576;50.460;4.866;2022-11-20T06:08:28;3.45;99.99
75899;DHT22;64576;50.460;4.866;2022-11-20T06:10:53;3.49;99.99
75899;DHT22;64576;50.460;4.866;2022-11-20T06:13:19;3.48;99.99
75899;DHT22;64576;50.460;4.866;2022-11-20T06:15:51;3.49;99.99
75899;DHT22;64576;50.460;4.866;2022-11-20T06:18:17;3.54;99.99
75899;DHT22;64576;50.460;4.866;2022-11-20T06:20:43;3.55;99.99
75899;DHT22;64576;50.460;4.866;2022-11-20T06:23:08;3.59;99.99
75899;DHT22;64576;50.460;4.866;2022-11-20T06:25:37;3.58;99.99
75899;DHT22;64576;50.460;4.866;2022-11-20T06:28:03;3.59;99.99
75899;DHT22;64576;50.460;4.866;2022-11-20T06:30:28;3.58;99.99
75899;DHT22;64576;50.460;4.866;2022-11-20T06:32:53;3.56;99.99
75899;DHT22;64576;50.460;4.866;2022-11-20T06:35:19;3.58;99.99
75899;DHT22;64576;50.460;4.866;2022-11-20T06:37:44;3.54;99.99
75899;DHT22;64576;50.460;4.866;2022-11-20T06:40:10;3.45;99.99
75899;DHT22;64576;50.460;4.866;2022-11-20T06:42:35;3.48;99.99
75899;DHT22;64576;50.460;4.866;2022-11-20T06:45:01;3.55;99.99
75899;DHT22;64576;50.460;4.866;2022-11-20T06:47:26;3.63;99.99
75899;DHT22;64576;50.460;4.866;2022-11-20T06:49:51;3.69;99.99
75899;DHT22;64576;50.460;4.866;2022-11-20T06:52:16;3.66;99.99
75899;DHT22;64576;50.460;4.866;2022-11-20T06:54:42;3.68;99.99
75899;DHT22;64576;50.460;4.866;2022-11-20T06:57:07;3.75;99.99
75899;DHT22;64576;50.460;4.866;2022-11-20T06:59:32;3.72;99.99
75899;DHT22;64576;50.460;4.866;2022-11-20T07:01:58;3.75;99.99
75899;DHT22;64576;50.460;4.866;2022-11-20T07:04:23;3.80;99.99
75899;DHT22;64576;50.460;4.866;2022-11-20T07:06:48;3.79;99.99
75899;DHT22;64576;50.460;4.866;2022-11-20T07:09:14;3.87;99.99
75899;DHT22;64576;50.460;4.866;2022-11-20T07:11:39;3.86;99.99
75899;DHT22;64576;50.460;4.866;2022-11-20T07:14:04;3.80;99.99
75899;DHT22;64576;50.460;4.866;2022-11-20T07:16:30;3.85;99.99
75899;DHT22;64576;50.460;4.866;2022-11-20T07:18:55;3.89;99.99
75899;DHT22;64576;50.460;4.866;2022-11-20T07:21:21;3.93;99.99
75899;DHT22;64576;50.460;4.866;2022-11-20T07:23:46;3.94;99.99
75899;DHT22;64576;50.460;4.866;2022-11-20T07:26:11;3.98;99.99
75899;DHT22;64576;50.460;4.866;2022-11-20T07:28:37;4.01;99.99
75899;DHT22;64576;50.460;4.866;2022-11-20T07:31:03;4.15;99.99
75899;DHT22;64576;50.460;4.866;2022-11-20T07:33:30;4.27;99.99
75899;DHT22;64576;50.460;4.866;2022-11-20T07:35:55;4.27;99.99
75899;DHT22;64576;50.460;4.866;2022-11-20T07:38:20;4.37;99.99
75899;DHT22;64576;50.460;4.866;2022-11-20T07:40:46;4.45;99.99
75899;DHT22;64576;50.460;4.866;2022-11-20T07:43:11;4.52;99.99
75899;DHT22;64576;50.460;4.866;2022-11-20T07:45:37;4.53;99.99
75899;DHT22;64576;50.460;4.866;2022-11-20T07:48:02;4.55;99.99
75899;DHT22;64576;50.460;4.866;2022-11-20T07:50:28;4.56;99.99
75899;DHT22;64576;50.460;4.866;2022-11-20T07:53:02;4.61;99.99
75899;DHT22;64576;50.460;4.866;2022-11-20T07:55:28;4.58;99.99
75899;DHT22;64576;50.460;4.866;2022-11-20T07:57:55;4.58;99.99
75899;DHT22;64576;50.460;4.866;2022-11-20T08:00:21;4.58;99.99
75899;DHT22;64576;50.460;4.866;2022-11-20T08:02:46;4.51;99.99
75899;DHT22;64576;50.460;4.866;2022-11-20T08:05:11;4.52;99.99
75899;DHT22;64576;50.460;4.866;2022-11-20T08:07:38;4.58;99.99
75899;DHT22;64576;50.460;4.866;2022-11-20T08:10:04;4.68;99.99
75899;DHT22;64576;50.460;4.866;2022-11-20T08:12:30;4.72;99.99
75899;DHT22;64576;50.460;4.866;2022-11-20T08:15:14;4.70;99.99
75899;DHT22;64576;50.460;4.866;2022-11-20T08:17:39;4.75;99.99
75899;DHT22;64576;50.460;4.866;2022-11-20T08:20:04;4.81;99.99
75899;DHT22;64576;50.460;4.866;2022-11-20T08:22:30;4.90;99.99
75899;DHT22;64576;50.460;4.866;2022-11-20T08:24:55;4.86;99.99
75899;DHT22;64576;50.460;4.866;2022-11-20T08:27:20;4.84;99.99
75899;DHT22;64576;50.460;4.866;2022-11-20T08:29:46;4.86;99.99
75899;DHT22;64576;50.460;4.866;2022-11-20T08:32:11;4.89;99.99
75899;DHT22;64576;50.460;4.866;2022-11-20T08:34:36;4.90;99.99
75899;DHT22;64576;50.460;4.866;2022-11-20T08:37:02;5.01;99.99
75899;DHT22;64576;50.460;4.866;2022-11-20T08:39:28;5.07;99.99
75899;DHT22;64576;50.460;4.866;2022-11-20T08:41:53;5.17;99.99
75899;DHT22;64576;50.460;4.866;2022-11-20T08:44:18;5.23;99.99
75899;DHT22;64576;50.460;4.866;2022-11-20T08:46:43;5.30;99.99
75899;DHT22;64576;50.460;4.866;2022-11-20T08:49:13;5.36;99.99
75899;DHT22;64576;50.460;4.866;2022-11-20T08:51:39;5.45;99.99
75899;DHT22;64576;50.460;4.866;2022-11-20T08:54:05;5.46;99.99
75899;DHT22;64576;50.460;4.866;2022-11-20T08:56:31;5.51;99.99
75899;DHT22;64576;50.460;4.866;2022-11-20T08:58:58;5.59;99.99
75899;DHT22;64576;50.460;4.866;2022-11-20T09:01:26;5.67;99.99
75899;DHT22;64576;50.460;4.866;2022-11-20T09:03:52;5.72;99.99
75899;DHT22;64576;50.460;4.866;2022-11-20T09:06:18;5.80;99.99
75899;DHT22;64576;50.460;4.866;2022-11-20T09:08:43;5.99;99.99
75899;DHT22;64576;50.460;4.866;2022-11-20T09:11:09;6.04;99.74
75899;DHT22;64576;50.460;4.866;2022-11-20T09:13:35;6.14;99.27
75899;DHT22;64576;50.460;4.866;2022-11-20T09:16:04;6.22;99.03
75899;DHT22;64576;50.460;4.866;2022-11-20T09:18:31;6.61;97.93
75899;DHT22;64576;50.460;4.866;2022-11-20T09:21:02;6.72;97.16
75899;DHT22;64576;50.460;4.866;2022-11-20T09:23:31;6.82;96.30
75899;DHT22;64576;50.460;4.866;2022-11-20T09:25:57;6.87;95.75
75899;DHT22;64576;50.460;4.866;2022-11-20T09:28:25;6.93;95.86
75899;DHT22;64576;50.460;4.866;2022-11-20T09:30:50;7.03;94.75
75899;DHT22;64576;50.460;4.866;2022-11-20T09:33:16;7.14;94.79
75899;DHT22;64576;50.460;4.866;2022-11-20T09:35:42;7.27;93.66
75899;DHT22;64576;50.460;4.866;2022-11-20T09:38:08;7.25;93.51
75899;DHT22;64576;50.460;4.866;2022-11-20T09:40:38;7.27;93.54
75899;DHT22;64576;50.460;4.866;2022-11-20T09:46:06;7.34;93.27
75899;DHT22;64576;50.460;4.866;2022-11-20T09:48:47;7.28;92.86
75899;DHT22;64576;50.460;4.866;2022-11-20T09:54:48;7.49;91.71
75899;DHT22;64576;50.460;4.866;2022-11-20T09:56:59;7.52;92.03
75899;DHT22;64576;50.460;4.866;2022-11-20T09:59:42;7.42;91.24
75899;DHT22;64576;50.460;4.866;2022-11-20T10:05:21;7.58;91.16
75899;DHT22;64576;50.460;4.866;2022-11-20T10:10:40;7.32;91.18
75899;DHT22;64576;50.460;4.866;2022-11-20T10:18:42;7.45;91.89
75899;DHT22;64576;50.460;4.866;2022-11-20T10:21:30;7.36;91.56
75899;DHT22;64576;50.460;4.866;2022-11-20T10:29:39;7.32;91.61
75899;DHT22;64576;50.460;4.866;2022-11-20T10:32:19;7.42;91.14
75899;DHT22;64576;50.460;4.866;2022-11-20T10:34:58;7.38;90.52
75899;DHT22;64576;50.460;4.866;2022-11-20T10:37:26;7.32;89.64
75899;DHT22;64576;50.460;4.866;2022-11-20T10:40:00;7.31;91.08
75899;DHT22;64576;50.460;4.866;2022-11-20T10:42:34;7.38;89.90
75899;DHT22;64576;50.460;4.866;2022-11-20T10:45:16;7.48;89.25
75899;DHT22;64576;50.460;4.866;2022-11-20T10:47:44;7.54;88.77
75899;DHT22;64576;50.460;4.866;2022-11-20T10:50:13;7.56;88.73
75899;DHT22;64576;50.460;4.866;2022-11-20T10:55:38;7.66;88.81
75899;DHT22;64576;50.460;4.866;2022-11-20T10:58:14;7.69;88.70
75899;DHT22;64576;50.460;4.866;2022-11-20T11:00:41;7.78;87.61
75899;DHT22;64576;50.460;4.866;2022-11-20T11:05:50;7.80;86.53
75899;DHT22;64576;50.460;4.866;2022-11-20T11:08:19;7.89;86.62
75899;DHT22;64576;50.460;4.866;2022-11-20T11:11:00;7.93;86.67
75899;DHT22;64576;50.460;4.866;2022-11-20T11:13:28;8.24;86.13
75899;DHT22;64576;50.460;4.866;2022-11-20T11:15:54;8.20;84.46
75899;DHT22;64576;50.460;4.866;2022-11-20T11:18:25;8.51;85.33
75899;DHT22;64576;50.460;4.866;2022-11-20T11:20:51;8.17;85.45
75899;DHT22;64576;50.460;4.866;2022-11-20T11:23:30;7.96;85.65
75899;DHT22;64576;50.460;4.866;2022-11-20T11:25:58;7.76;84.72
75899;DHT22;64576;50.460;4.866;2022-11-20T11:28:24;7.70;85.06
75899;DHT22;64576;50.460;4.866;2022-11-20T11:30:52;7.61;87.03
75899;DHT22;64576;50.460;4.866;2022-11-20T11:33:20;7.55;86.21
75899;DHT22;64576;50.460;4.866;2022-11-20T11:35:50;7.48;85.29
75899;DHT22;64576;50.460;4.866;2022-11-20T11:38:38;7.51;86.65
75899;DHT22;64576;50.460;4.866;2022-11-20T11:41:10;7.49;85.87
75899;DHT22;64576;50.460;4.866;2022-11-20T11:43:37;7.45;85.44
75899;DHT22;64576;50.460;4.866;2022-11-20T11:46:35;7.38;86.16
75899;DHT22;64576;50.460;4.866;2022-11-20T11:49:14;7.36;87.28
75899;DHT22;64576;50.460;4.866;2022-11-20T11:52:02;7.31;86.03
75899;DHT22;64576;50.460;4.866;2022-11-20T11:54:41;7.24;86.00
75899;DHT22;64576;50.460;4.866;2022-11-20T11:57:26;7.20;86.35
75899;DHT22;64576;50.460;4.866;2022-11-20T12:05:30;7.32;84.73
75899;DHT22;64576;50.460;4.866;2022-11-20T12:08:05;7.41;85.26
75899;DHT22;64576;50.460;4.866;2022-11-20T12:10:41;7.47;84.96
75899;DHT22;64576;50.460;4.866;2022-11-20T12:15:59;7.59;84.31
75899;DHT22;64576;50.460;4.866;2022-11-20T12:18:24;7.62;83.30
75899;DHT22;64576;50.460;4.866;2022-11-20T12:23:41;7.55;84.38
75899;DHT22;64576;50.460;4.866;2022-11-20T12:31:52;7.65;83.48
75899;DHT22;64576;50.460;4.866;2022-11-20T12:34:43;7.63;83.70
75899;DHT22;64576;50.460;4.866;2022-11-20T12:37:30;7.65;84.19
75899;DHT22;64576;50.460;4.866;2022-11-20T12:43:19;7.49;84.64
75899;DHT22;64576;50.460;4.866;2022-11-20T12:46:25;7.40;86.58
75899;DHT22;64576;50.460;4.866;2022-11-20T12:52:10;7.18;88.43
75899;DHT22;64576;50.460;4.866;2022-11-20T13:00:00;6.93;92.20
75899;DHT22;64576;50.460;4.866;2022-11-20T13:08:00;6.68;93.18
75899;DHT22;64576;50.460;4.866;2022-11-20T13:13:44;6.61;94.63
75899;DHT22;64576;50.460;4.866;2022-11-20T13:16:36;6.62;94.98
75899;DHT22;64576;50.460;4.866;2022-11-20T13:19:04;6.56;94.67
75899;DHT22;64576;50.460;4.866;2022-11-20T13:21:45;6.58;95.30
75899;DHT22;64576;50.460;4.866;2022-11-20T13:24:21;6.61;95.73
75899;DHT22;64576;50.460;4.866;2022-11-20T13:29:33;6.56;95.09
75899;DHT22;64576;50.460;4.866;2022-11-20T13:32:25;6.61;95.26
75899;DHT22;64576;50.460;4.866;2022-11-20T13:34:58;6.56;95.41
75899;DHT22;64576;50.460;4.866;2022-11-20T13:37:35;6.49;96.02
75899;DHT22;64576;50.460;4.866;2022-11-20T13:42:35;6.32;97.75
75899;DHT22;64576;50.460;4.866;2022-11-20T13:45:09;6.25;98.44
75899;DHT22;64576;50.460;4.866;2022-11-20T13:47:35;6.16;98.58
75899;DHT22;64576;50.460;4.866;2022-11-20T13:50:03;6.10;99.13
75899;DHT22;64576;50.460;4.866;2022-11-20T13:57:33;6.16;99.77
75899;DHT22;64576;50.460;4.866;2022-11-20T14:00:20;6.14;99.75
75899;DHT22;64576;50.460;4.866;2022-11-20T14:03:17;6.18;99.76
75899;DHT22;64576;50.460;4.866;2022-11-20T14:05:56;6.24;98.60
75899;DHT22;64576;50.460;4.866;2022-11-20T14:08:46;6.27;98.82
75899;DHT22;64576;50.460;4.866;2022-11-20T14:11:23;6.27;98.88
75899;DHT22;64576;50.460;4.866;2022-11-20T14:14:18;6.28;99.05
75899;DHT22;64576;50.460;4.866;2022-11-20T14:16:45;6.30;98.95
75899;DHT22;64576;50.460;4.866;2022-11-20T14:19:25;6.31;98.87
75899;DHT22;64576;50.460;4.866;2022-11-20T14:22:20;6.34;98.71
75899;DHT22;64576;50.460;4.866;2022-11-20T14:24:49;6.35;98.89
75899;DHT22;64576;50.460;4.866;2022-11-20T14:27:25;6.39;98.47
75899;DHT22;64576;50.460;4.866;2022-11-20T14:29:50;6.37;98.10
75899;DHT22;64576;50.460;4.866;2022-11-20T14:32:18;6.44;97.33
75899;DHT22;64576;50.460;4.866;2022-11-20T14:34:47;6.44;97.64
75899;DHT22;64576;50.460;4.866;2022-11-20T14:37:19;6.42;97.62
75899;DHT22;64576;50.460;4.866;2022-11-20T14:39:51;6.44;97.85
75899;DHT22;64576;50.460;4.866;2022-11-20T14:42:24;6.44;97.54
75899;DHT22;64576;50.460;4.866;2022-11-20T14:44:50;6.48;97.89
75899;DHT22;64576;50.460;4.866;2022-11-20T14:47:22;6.49;97.09
75899;DHT22;64576;50.460;4.866;2022-11-20T14:49:49;6.50;97.26
75899;DHT22;64576;50.460;4.866;2022-11-20T14:52:23;6.53;97.11
75899;DHT22;64576;50.460;4.866;2022-11-20T14:54:53;6.53;96.98
75899;DHT22;64576;50.460;4.866;2022-11-20T14:57:37;6.59;96.75
75899;DHT22;64576;50.460;4.866;2022-11-20T15:02:45;6.71;96.15
75899;DHT22;64576;50.460;4.866;2022-11-20T15:05:12;6.65;96.67
75899;DHT22;64576;50.460;4.866;2022-11-20T15:07:40;6.66;96.43
75899;DHT22;64576;50.460;4.866;2022-11-20T15:10:27;6.71;96.65
75899;DHT22;64576;50.460;4.866;2022-11-20T15:15:47;6.80;95.52
75899;DHT22;64576;50.460;4.866;2022-11-20T15:18:18;6.85;95.34
75899;DHT22;64576;50.460;4.866;2022-11-20T15:20:44;6.85;95.65
75899;DHT22;64576;50.460;4.866;2022-11-20T15:23:16;6.76;96.31
75899;DHT22;64576;50.460;4.866;2022-11-20T15:25:44;6.77;96.27
75899;DHT22;64576;50.460;4.866;2022-11-20T15:28:37;6.89;95.53
75899;DHT22;64576;50.460;4.866;2022-11-20T15:31:05;6.92;95.25
75899;DHT22;64576;50.460;4.866;2022-11-20T15:33:31;6.92;95.60
75899;DHT22;64576;50.460;4.866;2022-11-20T15:35:57;7.01;94.72
75899;DHT22;64576;50.460;4.866;2022-11-20T15:38:22;7.00;94.98
75899;DHT22;64576;50.460;4.866;2022-11-20T15:40:48;7.03;94.88
75899;DHT22;64576;50.460;4.866;2022-11-20T15:43:14;7.03;95.08
75899;DHT22;64576;50.460;4.866;2022-11-20T15:45:48;7.00;95.49
75899;DHT22;64576;50.460;4.866;2022-11-20T15:51:03;6.99;95.46
75899;DHT22;64576;50.460;4.866;2022-11-20T15:53:31;7.07;95.17
75899;DHT22;64576;50.460;4.866;2022-11-20T15:55:56;7.20;94.42
75899;DHT22;64576;50.460;4.866;2022-11-20T15:58:21;7.27;93.67
75899;DHT22;64576;50.460;4.866;2022-11-20T16:00:49;7.24;94.34
75899;DHT22;64576;50.460;4.866;2022-11-20T16:03:18;7.24;94.10
75899;DHT22;64576;50.460;4.866;2022-11-20T16:05:44;7.36;93.05
75899;DHT22;64576;50.460;4.866;2022-11-20T16:08:09;7.35;93.14
75899;DHT22;64576;50.460;4.866;2022-11-20T16:10:35;7.32;93.87
75899;DHT22;64576;50.460;4.866;2022-11-20T16:13:01;7.28;93.92
75899;DHT22;64576;50.460;4.866;2022-11-20T16:15:56;7.34;93.51
75899;DHT22;64576;50.460;4.866;2022-11-20T16:18:23;7.30;93.68
75899;DHT22;64576;50.460;4.866;2022-11-20T16:20:53;7.28;93.57
75899;DHT22;64576;50.460;4.866;2022-11-20T16:23:19;7.27;93.33
75899;DHT22;64576;50.460;4.866;2022-11-20T16:25:45;7.23;93.47
75899;DHT22;64576;50.460;4.866;2022-11-20T16:28:11;7.27;93.73
75899;DHT22;64576;50.460;4.866;2022-11-20T16:30:37;7.30;93.41
75899;DHT22;64576;50.460;4.866;2022-11-20T16:33:03;7.30;93.54
75899;DHT22;64576;50.460;4.866;2022-11-20T16:35:29;7.41;92.77
75899;DHT22;64576;50.460;4.866;2022-11-20T16:37:56;7.45;92.20
75899;DHT22;64576;50.460;4.866;2022-11-20T16:40:23;7.44;92.35
75899;DHT22;64576;50.460;4.866;2022-11-20T16:42:49;7.47;92.31
75899;DHT22;64576;50.460;4.866;2022-11-20T16:45:15;7.44;92.55
75899;DHT22;64576;50.460;4.866;2022-11-20T16:47:41;7.45;92.49
75899;DHT22;64576;50.460;4.866;2022-11-20T16:50:07;7.47;92.62
75899;DHT22;64576;50.460;4.866;2022-11-20T16:52:32;7.47;92.76
75899;DHT22;64576;50.460;4.866;2022-11-20T16:54:58;7.38;93.23
75899;DHT22;64576;50.460;4.866;2022-11-20T16:57:24;7.36;93.10
75899;DHT22;64576;50.460;4.866;2022-11-20T16:59:49;7.23;93.64
75899;DHT22;64576;50.460;4.866;2022-11-20T17:02:15;7.21;94.01
75899;DHT22;64576;50.460;4.866;2022-11-20T17:04:40;7.05;94.55
75899;DHT22;64576;50.460;4.866;2022-11-20T17:07:06;7.04;94.67
75899;DHT22;64576;50.460;4.866;2022-11-20T17:09:31;7.03;94.59
75899;DHT22;64576;50.460;4.866;2022-11-20T17:11:57;6.99;94.85
75899;DHT22;64576;50.460;4.866;2022-11-20T17:14:22;7.04;94.64
75899;DHT22;64576;50.460;4.866;2022-11-20T17:16:47;7.08;94.40
75899;DHT22;64576;50.460;4.866;2022-11-20T17:19:13;7.24;93.51
75899;DHT22;64576;50.460;4.866;2022-11-20T17:21:38;7.23;93.34
75899;DHT22;64576;50.460;4.866;2022-11-20T17:24:12;7.24;93.34
75899;DHT22;64576;50.460;4.866;2022-11-20T17:26:40;7.20;93.56